Time;durP1;ratioP1;P1;durP2;ratioP2;P2;SDS_P1;SDS_P2;PMS_P1;PMS_P2;Temp;Humidity;BMP_temperature;BMP_pressure;BME280_temperature;BME280_humidity;BME280_pressure;Samples;Min_cycle;Max_cycle;Signal;HPM_P1;HPM_P2
2023/03/06 00:00:01;;;;;;;54.03;41.20;;;9.70;99.90;;;;;;5044051;28;20223;-70
2023/03/06 00:02:29;;;;;;;54.00;43.35;;;9.80;99.90;;;;;;5043969;28;20310;-70
2023/03/06 00:04:57;;;;;;;56.72;45.22;;;9.80;99.90;;;;;;5044163;28;20204;-70
2023/03/06 00:07:24;;;;;;;52.22;41.17;;;9.80;99.90;;;;;;5040320;28;20290;-70
2023/03/06 00:09:51;;;;;;;48.60;38.78;;;9.80;99.90;;;;;;5045233;28;20289;-71
2023/03/06 00:12:18;;;;;;;43.65;36.20;;;9.80;99.90;;;;;;5039525;28;20285;-71
2023/03/06 00:14:45;;;;;;;40.58;33.58;;;9.70;99.90;;;;;;5040930;28;20234;-71
2023/03/06 00:17:12;;;;;;;36.40;29.63;;;9.60;99.90;;;;;;5041403;28;20219;-71
2023/03/06 00:19:41;;;;;;;35.22;27.67;;;9.50;99.90;;;;;;5043001;28;20211;-71
2023/03/06 00:22:10;;;;;;;31.63;26.80;;;9.40;99.90;;;;;;5039002;28;20218;-71
2023/03/06 00:24:37;;;;;;;48.30;37.90;;;9.40;99.90;;;;;;5040976;28;20238;-70
2023/03/06 00:27:04;;;;;;;49.00;39.20;;;9.40;99.90;;;;;;5041788;28;20293;-70
2023/03/06 00:29:31;;;;;;;44.63;34.05;;;9.40;99.90;;;;;;5040889;28;20305;-71
2023/03/06 00:31:58;;;;;;;50.83;39.83;;;9.40;99.90;;;;;;5042366;28;20306;-71
2023/03/06 00:34:25;;;;;;;44.28;36.55;;;9.50;99.90;;;;;;5042413;28;20269;-71
2023/03/06 00:36:54;;;;;;;43.92;35.88;;;9.40;99.90;;;;;;5045006;28;20207;-71
2023/03/06 00:39:22;;;;;;;40.70;32.90;;;9.40;99.90;;;;;;5047917;28;20285;-71
2023/03/06 00:41:49;;;;;;;36.92;31.00;;;9.30;99.90;;;;;;5043763;28;20223;-71
2023/03/06 00:44:16;;;;;;;35.97;31.17;;;9.20;99.90;;;;;;5041584;28;20253;-71
2023/03/06 00:46:43;;;;;;;35.33;28.80;;;9.20;99.90;;;;;;5039863;28;20323;-71
2023/03/06 00:49:10;;;;;;;40.00;30.55;;;9.10;99.90;;;;;;5038952;28;20231;-71
2023/03/06 00:51:37;;;;;;;30.23;24.88;;;9.10;99.90;;;;;;5042284;28;20306;-71
2023/03/06 00:54:06;;;;;;;30.65;23.88;;;9.00;99.90;;;;;;5038696;28;20282;-71
2023/03/06 00:56:33;;;;;;;25.95;23.15;;;9.00;99.90;;;;;;5037906;28;20688;-71
2023/03/06 00:59:00;;;;;;;26.48;22.55;;;9.00;99.90;;;;;;5045151;28;20234;-71
2023/03/06 01:01:28;;;;;;;27.80;23.33;;;9.00;99.90;;;;;;5045715;28;20789;-71
2023/03/06 01:03:55;;;;;;;25.00;21.92;;;9.00;99.90;;;;;;5038927;28;20203;-71
2023/03/06 01:06:22;;;;;;;26.65;21.10;;;9.00;99.90;;;;;;5044550;28;20763;-72
2023/03/06 01:08:49;;;;;;;23.08;20.30;;;8.90;99.90;;;;;;5042495;28;20330;-71
2023/03/06 01:11:17;;;;;;;25.33;21.85;;;8.90;99.90;;;;;;5043227;28;20334;-71
2023/03/06 01:13:45;;;;;;;31.63;27.40;;;8.90;99.90;;;;;;5041127;28;20721;-71
2023/03/06 01:16:14;;;;;;;32.33;25.75;;;8.80;99.90;;;;;;5040868;28;20391;-71
2023/03/06 01:18:41;;;;;;;26.75;22.48;;;8.80;99.90;;;;;;5043932;28;20294;-72
2023/03/06 01:21:09;;;;;;;25.65;21.70;;;8.80;99.90;;;;;;5042133;28;20245;-71
2023/03/06 01:23:36;;;;;;;24.17;21.05;;;8.80;99.90;;;;;;5045291;28;20227;-71
2023/03/06 01:26:04;;;;;;;24.17;19.70;;;8.80;99.90;;;;;;5043598;28;20230;-71
2023/03/06 01:28:33;;;;;;;23.73;19.83;;;8.80;99.90;;;;;;5041011;28;20260;-70
2023/03/06 01:31:01;;;;;;;21.42;19.13;;;8.80;99.90;;;;;;5043501;28;20199;-71
2023/03/06 01:33:28;;;;;;;25.05;20.48;;;8.80;99.90;;;;;;5046239;28;20218;-71
2023/03/06 01:35:55;;;;;;;22.50;19.30;;;8.80;99.90;;;;;;5039036;28;20318;-71
2023/03/06 01:38:22;;;;;;;24.83;20.10;;;8.80;99.90;;;;;;5037092;28;20301;-71
2023/03/06 01:40:49;;;;;;;21.88;18.67;;;8.80;99.90;;;;;;5042377;28;20286;-71
2023/03/06 01:43:27;;;;;;;24.77;20.27;;;8.80;99.90;;;;;;5038648;28;20286;-71
2023/03/06 01:46:25;;;;;;;24.80;21.00;;;8.80;99.90;;;;;;5037653;28;20234;-71
2023/03/06 01:48:55;;;;;;;25.63;21.63;;;8.80;99.90;;;;;;5007736;28;20307;-71
2023/03/06 01:51:25;;;;;;;23.45;20.75;;;8.70;99.90;;;;;;5050889;28;20245;-71
2023/03/06 01:53:53;;;;;;;25.63;21.45;;;8.70;99.90;;;;;;5039144;28;20782;-71
2023/03/06 01:56:21;;;;;;;23.95;20.00;;;8.70;99.90;;;;;;5043648;28;20199;-71
2023/03/06 01:58:50;;;;;;;24.42;19.35;;;8.70;99.90;;;;;;5041896;28;20635;-71
2023/03/06 02:01:18;;;;;;;23.38;20.05;;;8.70;99.90;;;;;;5042586;28;20222;-71
2023/03/06 02:03:49;;;;;;;23.90;20.40;;;8.70;99.90;;;;;;5041194;28;20660;-71
2023/03/06 02:06:20;;;;;;;23.88;19.77;;;8.70;99.90;;;;;;5041743;28;20729;-71
2023/03/06 02:08:49;;;;;;;23.80;19.55;;;8.70;99.90;;;;;;5040388;28;20588;-71
2023/03/06 02:11:17;;;;;;;23.25;19.33;;;8.80;99.90;;;;;;5037722;28;20405;-71
2023/03/06 02:13:48;;;;;;;26.58;20.08;;;8.70;99.90;;;;;;5040326;28;20341;-70
2023/03/06 02:16:17;;;;;;;22.40;19.55;;;8.70;99.90;;;;;;5039624;28;20291;-71
2023/03/06 02:18:46;;;;;;;23.17;19.88;;;8.70;99.90;;;;;;5042593;28;20290;-71
2023/03/06 02:21:20;;;;;;;25.95;20.77;;;8.70;99.90;;;;;;5044128;28;20214;-71
2023/03/06 02:23:57;;;;;;;26.25;22.42;;;8.70;99.90;;;;;;5040670;28;20239;-71
2023/03/06 02:26:27;;;;;;;24.92;21.15;;;8.60;99.90;;;;;;5035762;28;20203;-71
2023/03/06 02:28:56;;;;;;;23.02;20.52;;;8.60;99.90;;;;;;5041164;28;20618;-71
2023/03/06 02:31:25;;;;;;;23.25;20.20;;;8.50;99.90;;;;;;5043419;28;20235;-71
2023/03/06 02:34:05;;;;;;;24.83;21.30;;;8.50;99.90;;;;;;5036773;28;20301;-71
2023/03/06 02:36:35;;;;;;;25.70;20.23;;;8.40;99.90;;;;;;5043191;28;20294;-71
2023/03/06 02:39:02;;;;;;;28.42;22.95;;;8.40;99.90;;;;;;5041119;28;20784;-71
2023/03/06 02:41:31;;;;;;;24.77;21.45;;;8.40;99.90;;;;;;5040113;28;20231;-71
2023/03/06 02:43:58;;;;;;;26.77;23.00;;;8.40;99.90;;;;;;5040236;28;20227;-71
2023/03/06 02:46:25;;;;;;;27.10;23.25;;;8.30;99.90;;;;;;5041785;28;20341;-71
2023/03/06 02:48:52;;;;;;;27.35;20.85;;;8.20;99.90;;;;;;5042148;28;20766;-71
2023/03/06 02:51:19;;;;;;;24.50;21.05;;;8.10;99.90;;;;;;5042571;28;20254;-71
2023/03/06 02:53:46;;;;;;;26.70;21.95;;;8.10;99.90;;;;;;5043848;28;20313;-71
2023/03/06 02:56:14;;;;;;;24.50;21.10;;;8.00;99.90;;;;;;5043046;28;20231;-71
2023/03/06 02:58:43;;;;;;;23.40;19.83;;;8.00;99.90;;;;;;5045740;28;20282;-71
2023/03/06 03:01:10;;;;;;;21.20;18.27;;;7.90;99.90;;;;;;5044020;28;20714;-71
2023/03/06 03:03:37;;;;;;;19.75;17.08;;;7.90;99.90;;;;;;5043972;28;20195;-71
2023/03/06 03:06:06;;;;;;;25.02;20.95;;;7.90;99.90;;;;;;5043601;28;20893;-71
2023/03/06 03:08:34;;;;;;;19.65;17.25;;;7.90;99.90;;;;;;5042703;28;20294;-71
2023/03/06 03:11:01;;;;;;;22.15;18.58;;;7.80;99.90;;;;;;5042223;28;20684;-71
2023/03/06 03:13:28;;;;;;;20.42;17.65;;;7.90;99.90;;;;;;5043756;28;20301;-70
2023/03/06 03:16:01;;;;;;;23.05;18.83;;;8.00;99.90;;;;;;5042275;28;20290;-70
2023/03/06 03:18:28;;;;;;;23.42;19.75;;;8.00;99.90;;;;;;5038713;28;20769;-71
2023/03/06 03:20:56;;;;;;;23.05;19.50;;;8.10;99.90;;;;;;5050041;28;20207;-71
2023/03/06 03:23:23;;;;;;;30.90;25.75;;;8.10;99.90;;;;;;5044912;28;20282;-71
2023/03/06 03:25:50;;;;;;;28.27;24.13;;;8.10;99.90;;;;;;5044240;28;20301;-71
2023/03/06 03:28:18;;;;;;;23.90;20.65;;;8.10;99.90;;;;;;5044705;28;20306;-70
2023/03/06 03:30:46;;;;;;;23.00;19.60;;;8.00;99.90;;;;;;5040782;28;20214;-70
2023/03/06 03:33:14;;;;;;;23.75;19.52;;;8.00;99.90;;;;;;5041125;28;20302;-71
2023/03/06 03:35:41;;;;;;;22.38;19.15;;;7.90;99.90;;;;;;5042639;28;20298;-70
2023/03/06 03:38:08;;;;;;;23.20;18.48;;;7.80;99.90;;;;;;5042585;28;20284;-71
2023/03/06 03:40:35;;;;;;;21.95;18.33;;;7.80;99.90;;;;;;5045336;28;20805;-70
2023/03/06 03:43:02;;;;;;;20.02;17.58;;;7.80;99.90;;;;;;5044044;28;20310;-70
2023/03/06 03:45:29;;;;;;;24.08;21.02;;;7.80;99.90;;;;;;5042285;28;20231;-70
2023/03/06 03:47:56;;;;;;;23.27;20.33;;;7.70;99.90;;;;;;5043710;28;20286;-71
2023/03/06 03:50:24;;;;;;;22.90;19.35;;;7.70;99.90;;;;;;5040013;28;20638;-71
2023/03/06 03:52:51;;;;;;;24.13;19.98;;;7.70;99.90;;;;;;5047403;28;20314;-71
2023/03/06 03:55:18;;;;;;;21.80;18.20;;;7.60;99.90;;;;;;5043801;28;20278;-70
2023/03/06 03:57:45;;;;;;;22.45;18.85;;;7.60;99.90;;;;;;5044802;28;20290;-70
2023/03/06 04:00:15;;;;;;;22.80;19.35;;;7.50;99.90;;;;;;5042116;28;20286;-71
2023/03/06 04:02:43;;;;;;;29.23;23.40;;;7.50;99.90;;;;;;5040290;28;20212;-70
2023/03/06 04:05:10;;;;;;;25.75;22.25;;;7.50;99.90;;;;;;5048158;28;20298;-71
2023/03/06 04:07:40;;;;;;;23.38;19.55;;;7.50;99.90;;;;;;5042783;28;20694;-72
2023/03/06 04:10:09;;;;;;;25.42;19.70;;;7.40;99.90;;;;;;5040224;28;20286;-71
2023/03/06 04:12:36;;;;;;;21.90;18.45;;;7.30;99.90;;;;;;5042156;28;20254;-71
2023/03/06 04:15:04;;;;;;;22.35;19.05;;;7.10;99.90;;;;;;5042105;28;20670;-71
2023/03/06 04:17:32;;;;;;;20.83;17.48;;;7.10;99.90;;;;;;5032888;28;20203;-71
2023/03/06 04:20:00;;;;;;;18.48;16.52;;;7.10;99.90;;;;;;5041328;28;20253;-71
2023/03/06 04:22:28;;;;;;;21.15;17.48;;;7.20;99.90;;;;;;5039634;28;20221;-71
2023/03/06 04:24:56;;;;;;;25.98;20.42;;;7.10;99.90;;;;;;5044234;28;20287;-71
2023/03/06 04:27:23;;;;;;;24.58;21.17;;;7.10;99.90;;;;;;5041687;28;20234;-72
2023/03/06 04:29:52;;;;;;;24.52;20.10;;;7.10;99.90;;;;;;5043621;28;20243;-71
2023/03/06 04:32:20;;;;;;;23.42;20.60;;;7.10;99.90;;;;;;5042321;28;20215;-71
2023/03/06 04:34:47;;;;;;;22.42;18.48;;;7.10;99.90;;;;;;5037636;28;20251;-71
2023/03/06 04:37:19;;;;;;;21.88;17.33;;;7.00;99.90;;;;;;5045916;28;20286;-71
2023/03/06 04:39:46;;;;;;;19.83;16.77;;;7.00;99.90;;;;;;5042410;28;20504;-71
2023/03/06 04:42:16;;;;;;;17.08;14.85;;;7.00;99.90;;;;;;5039485;28;20258;-72
2023/03/06 04:44:43;;;;;;;16.75;13.98;;;7.00;99.90;;;;;;5042375;28;20319;-72
2023/03/06 04:47:10;;;;;;;15.85;13.38;;;7.00;99.90;;;;;;5043214;28;20238;-72
2023/03/06 04:49:37;;;;;;;15.60;13.85;;;7.00;99.90;;;;;;5043546;28;20860;-72
2023/03/06 04:52:05;;;;;;;14.77;12.73;;;7.00;99.90;;;;;;5038828;28;20279;-72
2023/03/06 04:54:32;;;;;;;14.60;13.10;;;7.10;99.90;;;;;;5038173;28;20214;-72
2023/03/06 04:56:59;;;;;;;13.48;11.90;;;7.10;99.90;;;;;;5042758;28;20293;-72
2023/03/06 04:59:28;;;;;;;13.90;12.38;;;7.10;99.90;;;;;;5039081;28;20287;-72
2023/03/06 05:01:56;;;;;;;14.50;13.00;;;7.00;99.90;;;;;;5039330;28;20322;-72
2023/03/06 05:04:24;;;;;;;15.13;12.27;;;7.00;99.90;;;;;;5043553;28;20210;-72
2023/03/06 05:06:51;;;;;;;15.57;13.90;;;7.00;99.90;;;;;;5042227;28;20231;-72
2023/03/06 05:09:18;;;;;;;16.20;13.60;;;7.00;99.90;;;;;;5037310;28;20199;-73
2023/03/06 05:11:45;;;;;;;14.73;12.75;;;7.10;99.90;;;;;;5039838;28;20250;-72
2023/03/06 05:14:12;;;;;;;13.75;12.13;;;7.10;99.90;;;;;;5041260;28;20310;-71
2023/03/06 05:16:41;;;;;;;15.32;12.70;;;7.10;99.90;;;;;;5044987;28;20281;-72
2023/03/06 05:19:08;;;;;;;12.60;11.30;;;7.20;99.90;;;;;;5039065;28;20227;-71
2023/03/06 05:21:35;;;;;;;18.33;15.27;;;7.20;99.90;;;;;;5037518;28;20326;-71
2023/03/06 05:24:02;;;;;;;17.85;14.50;;;7.20;99.90;;;;;;5041875;28;20285;-70
2023/03/06 05:26:29;;;;;;;17.95;15.48;;;7.10;99.90;;;;;;5038384;28;20284;-71
2023/03/06 05:28:56;;;;;;;16.33;14.50;;;7.00;99.90;;;;;;5038857;28;20242;-70
2023/03/06 05:31:23;;;;;;;14.73;12.75;;;6.90;99.90;;;;;;5042846;28;20637;-71
2023/03/06 05:33:52;;;;;;;17.25;14.10;;;7.00;99.90;;;;;;5042138;28;20301;-71
2023/03/06 05:36:19;;;;;;;19.88;15.27;;;7.00;99.90;;;;;;5044885;28;20282;-71
2023/03/06 05:38:46;;;;;;;16.20;13.77;;;7.00;99.90;;;;;;5039862;28;20294;-71
2023/03/06 05:41:14;;;;;;;14.48;12.98;;;7.00;99.90;;;;;;5040032;28;20305;-71
2023/03/06 05:43:41;;;;;;;14.20;12.15;;;7.00;99.90;;;;;;5040632;28;20218;-71
2023/03/06 05:46:10;;;;;;;14.07;12.55;;;7.00;99.90;;;;;;5040431;28;20280;-71
2023/03/06 05:48:38;;;;;;;14.63;12.15;;;7.00;99.90;;;;;;5040182;28;20203;-72
2023/03/06 05:51:06;;;;;;;14.80;12.32;;;7.00;99.90;;;;;;5042525;28;20246;-71
2023/03/06 05:53:33;;;;;;;14.73;12.95;;;7.00;99.90;;;;;;5041254;28;20302;-71
2023/03/06 05:56:03;;;;;;;16.40;14.00;;;7.00;99.90;;;;;;5037595;28;20286;-71
2023/03/06 05:58:32;;;;;;;14.23;12.27;;;7.10;99.90;;;;;;5043069;28;20286;-71
2023/03/06 06:01:00;;;;;;;15.55;12.63;;;7.10;99.90;;;;;;5040779;28;20287;-72
2023/03/06 06:03:27;;;;;;;13.93;12.35;;;7.10;99.90;;;;;;5036005;28;20262;-71
2023/03/06 06:05:55;;;;;;;16.08;12.65;;;7.10;99.90;;;;;;5037634;28;20270;-71
2023/03/06 06:08:23;;;;;;;13.40;11.65;;;7.00;99.90;;;;;;5039314;28;20230;-72
2023/03/06 06:10:50;;;;;;;14.20;12.52;;;7.00;99.90;;;;;;5039535;28;20282;-72
2023/03/06 06:13:17;;;;;;;13.68;11.77;;;7.00;99.90;;;;;;5039303;28;20224;-72
2023/03/06 06:15:44;;;;;;;14.57;12.23;;;7.00;99.90;;;;;;5042705;28;20209;-72
2023/03/06 06:18:11;;;;;;;15.60;12.10;;;6.90;99.90;;;;;;5042018;28;20198;-71
2023/03/06 06:20:38;;;;;;;18.85;13.07;;;6.90;99.90;;;;;;5039139;28;20302;-72
2023/03/06 06:23:06;;;;;;;14.57;13.07;;;7.00;99.90;;;;;;5041163;28;20306;-71
2023/03/06 06:25:34;;;;;;;16.58;13.73;;;7.00;99.90;;;;;;5044708;28;20199;-71
2023/03/06 06:28:02;;;;;;;14.05;12.60;;;7.00;99.90;;;;;;5046702;28;20252;-71
2023/03/06 06:30:29;;;;;;;15.00;13.38;;;7.10;99.90;;;;;;5040997;28;20281;-70
2023/03/06 06:32:56;;;;;;;14.52;13.00;;;7.10;99.90;;;;;;5043317;28;20333;-71
2023/03/06 06:35:23;;;;;;;14.00;12.35;;;7.10;99.90;;;;;;5043580;28;20272;-71
2023/03/06 06:37:50;;;;;;;14.27;12.00;;;7.10;99.90;;;;;;5039211;28;20751;-71
2023/03/06 06:40:19;;;;;;;13.43;12.00;;;7.20;99.90;;;;;;5040478;28;20309;-72
2023/03/06 06:42:48;;;;;;;15.85;12.65;;;7.20;99.90;;;;;;5042857;28;20696;-71
2023/03/06 06:45:15;;;;;;;14.50;12.70;;;7.10;99.90;;;;;;5033904;28;20291;-70
2023/03/06 06:47:42;;;;;;;15.45;13.25;;;7.10;99.90;;;;;;5040619;28;20230;-70
2023/03/06 06:50:12;;;;;;;14.07;12.57;;;7.00;99.90;;;;;;5042151;28;20286;-70
2023/03/06 06:52:40;;;;;;;13.82;12.20;;;7.10;99.90;;;;;;5041905;28;20310;-70
2023/03/06 06:55:08;;;;;;;14.25;11.90;;;7.10;99.90;;;;;;5037580;28;20214;-71
2023/03/06 06:57:35;;;;;;;17.42;12.77;;;7.10;99.90;;;;;;5041445;28;20235;-70
2023/03/06 07:00:04;;;;;;;12.48;11.18;;;7.20;99.90;;;;;;5041151;28;20676;-70
2023/03/06 07:02:32;;;;;;;13.43;11.20;;;7.30;99.90;;;;;;5039497;28;20307;-70
2023/03/06 07:04:59;;;;;;;13.45;11.43;;;7.40;99.90;;;;;;5035979;28;20217;-70
2023/03/06 07:07:26;;;;;;;14.05;12.55;;;7.40;99.90;;;;;;5035673;28;20211;-70
2023/03/06 07:09:53;;;;;;;14.18;12.10;;;7.40;99.90;;;;;;5029624;28;20204;-70
2023/03/06 07:12:20;;;;;;;12.82;11.35;;;7.40;99.90;;;;;;5036939;28;20302;-70
2023/03/06 07:14:47;;;;;;;14.05;12.50;;;7.40;99.90;;;;;;5040234;28;20280;-70
2023/03/06 07:17:16;;;;;;;14.57;12.13;;;7.50;99.90;;;;;;5040597;28;20286;-70
2023/03/06 07:19:43;;;;;;;15.35;13.02;;;7.40;99.90;;;;;;5038585;28;20206;-71
2023/03/06 07:22:10;;;;;;;16.73;12.27;;;7.50;99.90;;;;;;5050261;28;20235;-70
2023/03/06 07:24:37;;;;;;;13.90;11.70;;;7.50;99.90;;;;;;5055700;28;20234;-71
2023/03/06 07:27:05;;;;;;;13.93;11.50;;;7.50;99.90;;;;;;5050429;28;20227;-71
2023/03/06 07:29:33;;;;;;;15.48;13.82;;;7.60;99.90;;;;;;5047565;28;20207;-71
2023/03/06 07:32:00;;;;;;;13.95;12.00;;;7.60;99.90;;;;;;5038908;28;20230;-71
2023/03/06 07:34:29;;;;;;;16.65;13.27;;;7.50;99.90;;;;;;5030626;28;20682;-71
2023/03/06 07:36:56;;;;;;;13.57;12.18;;;7.50;99.90;;;;;;5033713;28;20203;-70
2023/03/06 07:39:23;;;;;;;15.63;13.25;;;7.50;99.90;;;;;;5033926;28;20282;-70
2023/03/06 07:41:51;;;;;;;16.25;13.65;;;7.50;99.90;;;;;;5036275;28;20918;-71
2023/03/06 07:44:17;;;;;;;15.75;13.13;;;7.60;99.90;;;;;;5038650;28;20227;-71
2023/03/06 07:46:45;;;;;;;16.52;13.70;;;7.60;99.90;;;;;;5034447;28;20227;-71
2023/03/06 07:49:14;;;;;;;14.05;12.63;;;7.70;99.90;;;;;;5035914;28;20289;-70
2023/03/06 07:51:42;;;;;;;15.00;13.50;;;7.80;99.90;;;;;;5035071;28;20223;-71
2023/03/06 07:54:09;;;;;;;15.55;12.82;;;8.00;99.90;;;;;;5042478;28;20296;-70
2023/03/06 07:56:36;;;;;;;14.65;12.77;;;8.20;99.90;;;;;;5042314;28;20907;-70
2023/03/06 07:59:03;;;;;;;15.88;13.75;;;8.30;99.90;;;;;;5034503;28;20294;-70
2023/03/06 08:01:31;;;;;;;17.60;13.32;;;8.40;99.90;;;;;;5043885;28;20300;-71
2023/03/06 08:03:59;;;;;;;18.50;14.98;;;8.50;99.90;;;;;;5039689;28;20290;-71
2023/03/06 08:06:27;;;;;;;17.17;14.45;;;8.60;99.90;;;;;;5042203;28;20210;-70
2023/03/06 08:08:56;;;;;;;16.17;14.30;;;8.60;99.90;;;;;;5038594;28;20238;-70
2023/03/06 08:11:26;;;;;;;16.75;14.18;;;8.60;99.90;;;;;;5034957;28;20255;-70
2023/03/06 08:13:54;;;;;;;16.52;14.02;;;8.60;99.90;;;;;;5038464;28;20297;-70
2023/03/06 08:16:23;;;;;;;16.65;13.13;;;8.50;99.90;;;;;;5038835;28;20286;-70
2023/03/06 08:18:50;;;;;;;14.85;13.10;;;8.50;99.90;;;;;;5038948;28;20286;-70
2023/03/06 08:21:20;;;;;;;15.52;13.93;;;8.50;99.90;;;;;;5040750;28;20334;-70
2023/03/06 08:23:47;;;;;;;17.60;13.88;;;8.50;99.90;;;;;;5038117;28;20616;-70
2023/03/06 08:26:18;;;;;;;13.95;12.52;;;8.50;99.90;;;;;;5039377;28;20229;-70
2023/03/06 08:28:45;;;;;;;14.43;12.88;;;8.50;99.90;;;;;;5037141;28;20774;-70
2023/03/06 08:31:18;;;;;;;14.57;12.65;;;8.50;99.90;;;;;;5041621;28;20271;-70
2023/03/06 08:33:45;;;;;;;16.20;13.07;;;8.50;99.90;;;;;;5035805;28;20290;-70
2023/03/06 08:36:12;;;;;;;14.00;12.50;;;8.50;99.90;;;;;;5040095;28;20238;-70
2023/03/06 08:38:39;;;;;;;14.27;12.52;;;8.50;99.90;;;;;;5039360;28;20237;-70
2023/03/06 08:41:06;;;;;;;12.20;10.90;;;8.40;99.90;;;;;;5032013;28;20229;-70
2023/03/06 08:43:35;;;;;;;14.02;12.57;;;8.40;99.90;;;;;;5039015;28;20286;-70
2023/03/06 08:46:03;;;;;;;14.82;12.20;;;8.50;99.90;;;;;;5039070;28;20682;-70
2023/03/06 08:48:30;;;;;;;12.85;11.20;;;8.60;99.90;;;;;;5034649;28;20288;-70
2023/03/06 08:50:57;;;;;;;13.85;11.73;;;8.70;99.90;;;;;;5037430;28;20289;-70
2023/03/06 08:53:24;;;;;;;13.63;11.75;;;8.70;99.90;;;;;;5037700;28;20284;-69
2023/03/06 08:55:51;;;;;;;14.15;12.63;;;8.60;99.90;;;;;;5040797;28;20215;-70
2023/03/06 08:58:18;;;;;;;15.30;13.20;;;8.60;99.90;;;;;;5037510;28;20277;-70
2023/03/06 09:00:47;;;;;;;15.52;12.25;;;8.60;99.90;;;;;;5037067;28;20235;-71
2023/03/06 09:03:14;;;;;;;15.25;12.88;;;8.60;99.90;;;;;;5038653;28;20660;-71
2023/03/06 09:05:41;;;;;;;14.35;12.60;;;8.50;99.90;;;;;;5036439;28;20183;-70
2023/03/06 09:08:09;;;;;;;13.88;12.38;;;8.50;99.90;;;;;;5037544;28;20235;-71
2023/03/06 09:10:36;;;;;;;14.07;11.27;;;8.60;99.90;;;;;;5038407;28;20222;-72
2023/03/06 09:13:03;;;;;;;14.80;12.30;;;8.70;99.90;;;;;;5037352;28;20310;-71
2023/03/06 09:15:31;;;;;;;12.35;11.05;;;8.80;99.90;;;;;;5036578;28;20338;-71
2023/03/06 09:17:59;;;;;;;18.60;12.23;;;8.90;99.90;;;;;;5035536;28;20678;-71
2023/03/06 09:20:26;;;;;;;15.90;11.50;;;8.90;99.90;;;;;;5039600;28;20238;-70
2023/03/06 09:22:54;;;;;;;13.32;11.82;;;8.90;99.90;;;;;;5036602;28;20305;-70
2023/03/06 09:25:22;;;;;;;12.80;11.15;;;8.90;99.90;;;;;;5037055;28;20625;-70
2023/03/06 09:27:50;;;;;;;13.75;11.70;;;8.80;99.90;;;;;;5036658;28;20199;-70
2023/03/06 09:30:18;;;;;;;13.73;11.88;;;8.70;99.90;;;;;;5032929;28;20234;-70
2023/03/06 09:32:45;;;;;;;15.80;12.00;;;8.70;99.90;;;;;;5038974;28;20247;-70
2023/03/06 09:35:16;;;;;;;13.50;11.52;;;8.70;99.90;;;;;;5036681;28;20310;-70
2023/03/06 09:37:43;;;;;;;13.82;12.30;;;8.70;99.90;;;;;;5036113;28;20207;-70
2023/03/06 09:40:17;;;;;;;15.90;11.60;;;8.70;99.90;;;;;;5037576;28;20206;-71
2023/03/06 09:42:44;;;;;;;14.93;12.13;;;8.60;99.90;;;;;;5040586;28;20273;-71
2023/03/06 09:45:13;;;;;;;15.45;11.20;;;8.70;99.90;;;;;;5037429;28;20230;-71
2023/03/06 09:47:51;;;;;;;13.38;11.93;;;8.70;99.90;;;;;;5038535;28;20206;-71
2023/03/06 09:50:30;;;;;;;12.68;10.55;;;8.80;99.90;;;;;;5038690;28;20817;-70
2023/03/06 09:53:25;;;;;;;12.52;10.48;;;8.80;99.90;;;;;;5038787;28;20326;-70
2023/03/06 09:55:59;;;;;;;14.88;11.25;;;8.80;99.90;;;;;;5040373;28;20215;-69
2023/03/06 09:58:28;;;;;;;12.90;11.50;;;8.80;99.90;;;;;;5035259;28;20206;-71
2023/03/06 10:01:01;;;;;;;13.20;11.43;;;8.80;99.90;;;;;;5038834;28;20292;-70
2023/03/06 10:03:34;;;;;;;13.48;11.65;;;8.80;99.90;;;;;;5039631;28;20241;-70
2023/03/06 10:06:11;;;;;;;12.75;11.45;;;8.90;99.90;;;;;;5037819;28;20226;-71
2023/03/06 10:08:48;;;;;;;15.65;12.73;;;8.90;99.90;;;;;;5038996;28;20873;-71
2023/03/06 10:11:22;;;;;;;14.00;12.48;;;8.90;99.90;;;;;;5037139;28;20711;-71
2023/03/06 10:13:53;;;;;;;14.90;12.40;;;9.00;99.90;;;;;;5033110;28;20302;-69
2023/03/06 10:16:27;;;;;;;12.63;11.20;;;9.00;99.90;;;;;;5037466;28;20246;-69
2023/03/06 10:18:55;;;;;;;15.35;12.35;;;9.20;99.90;;;;;;5029913;28;20662;-70
2023/03/06 10:21:39;;;;;;;13.05;11.35;;;9.30;99.90;;;;;;5030457;28;20847;-70
2023/03/06 10:24:19;;;;;;;15.52;12.82;;;9.40;99.90;;;;;;5029341;28;20639;-70
2023/03/06 10:26:53;;;;;;;14.95;12.88;;;9.40;99.90;;;;;;5036912;28;20294;-70
2023/03/06 10:29:33;;;;;;;16.67;14.02;;;9.50;99.90;;;;;;5035517;28;20523;-70
2023/03/06 10:32:10;;;;;;;15.18;12.82;;;9.50;99.90;;;;;;5035122;28;20310;-69
2023/03/06 10:34:40;;;;;;;17.92;13.57;;;9.50;99.90;;;;;;5036403;28;20264;-70
2023/03/06 10:37:19;;;;;;;14.77;12.32;;;9.60;99.90;;;;;;5035776;28;20295;-70
2023/03/06 10:39:46;;;;;;;16.30;13.07;;;9.60;99.90;;;;;;5037305;28;20978;-70
2023/03/06 10:42:13;;;;;;;15.65;13.02;;;9.70;99.90;;;;;;5018855;28;20904;-70
2023/03/06 10:44:40;;;;;;;16.23;13.75;;;9.70;99.90;;;;;;5035881;28;20846;-70
2023/03/06 10:47:28;;;;;;;17.67;14.38;;;9.60;99.90;;;;;;5034359;28;20284;-70
2023/03/06 10:50:00;;;;;;;18.90;14.20;;;9.70;99.90;;;;;;5032296;28;20214;-70
2023/03/06 10:52:31;;;;;;;16.90;15.10;;;9.80;99.90;;;;;;5037799;28;20313;-70
2023/03/06 10:55:25;;;;;;;18.70;15.50;;;9.90;99.90;;;;;;5036806;28;20237;-70
2023/03/06 10:57:53;;;;;;;22.45;17.75;;;10.10;99.90;;;;;;5042870;28;20242;-70
2023/03/06 11:00:31;;;;;;;21.33;16.85;;;10.20;99.90;;;;;;5039701;28;20302;-70
2023/03/06 11:03:19;;;;;;;20.35;16.60;;;10.20;99.90;;;;;;5039927;28;20254;-70
2023/03/06 11:06:05;;;;;;;21.90;17.55;;;10.20;99.90;;;;;;5037007;28;20207;-70
2023/03/06 11:08:34;;;;;;;23.00;17.02;;;10.20;99.90;;;;;;5035682;28;20199;-70
2023/03/06 11:11:03;;;;;;;18.27;16.13;;;10.10;99.90;;;;;;5031784;28;20286;-70
2023/03/06 11:13:32;;;;;;;18.88;15.30;;;10.20;99.90;;;;;;5037772;28;20223;-70
2023/03/06 11:16:03;;;;;;;20.42;15.48;;;10.40;99.90;;;;;;5036998;28;20762;-70
2023/03/06 11:18:35;;;;;;;17.77;15.80;;;10.50;99.90;;;;;;5037276;28;20299;-70
2023/03/06 11:21:06;;;;;;;16.75;14.95;;;10.60;99.90;;;;;;5037424;28;20860;-70
2023/03/06 11:23:41;;;;;;;22.80;17.70;;;10.70;99.90;;;;;;5041253;28;20200;-70
2023/03/06 11:26:34;;;;;;;25.60;19.73;;;10.90;99.90;;;;;;5047038;28;20223;-70
2023/03/06 11:29:23;;;;;;;21.40;17.73;;;10.90;99.90;;;;;;5035988;28;20199;-70
2023/03/06 11:31:54;;;;;;;22.67;18.08;;;10.90;99.90;;;;;;5041094;28;20227;-71
2023/03/06 11:34:34;;;;;;;22.17;18.40;;;10.90;99.90;;;;;;5034640;28;20215;-71
2023/03/06 11:37:07;;;;;;;21.42;18.40;;;10.80;99.90;;;;;;5039786;28;20250;-72
2023/03/06 11:39:42;;;;;;;25.77;20.80;;;10.60;99.90;;;;;;5039303;28;20284;-71
2023/03/06 11:45:08;;;;;;;24.73;21.10;;;10.60;99.90;;;;;;5116501;27;20552;-72
2023/03/06 11:47:39;;;;;;;27.98;20.33;;;10.90;99.90;;;;;;5110645;27;20222;-71
2023/03/06 11:50:17;;;;;;;21.65;19.10;;;11.50;99.90;;;;;;5107639;27;20590;-73
2023/03/06 11:52:48;;;;;;;23.55;20.65;;;11.70;99.90;;;;;;5111122;27;20273;-71
2023/03/06 11:55:20;;;;;;;25.40;21.30;;;11.90;99.90;;;;;;5114229;27;20199;-72
2023/03/06 11:57:57;;;;;;;26.70;22.60;;;11.90;99.90;;;;;;5115167;27;20208;-72
2023/03/06 12:00:38;;;;;;;30.50;23.80;;;11.70;99.90;;;;;;5115466;27;20232;-71
2023/03/06 12:03:44;;;;;;;31.75;24.05;;;11.70;99.90;;;;;;5114385;27;20302;-71
2023/03/06 12:06:17;;;;;;;29.33;22.33;;;11.50;99.90;;;;;;5113189;27;20303;-72
2023/03/06 12:08:54;;;;;;;27.70;21.20;;;11.60;99.90;;;;;;5118619;27;20304;-72
2023/03/06 12:11:26;;;;;;;26.00;21.50;;;11.70;99.90;;;;;;5115263;27;20221;-72
2023/03/06 12:14:25;;;;;;;35.65;23.70;;;11.90;99.90;;;;;;5109774;27;20295;-72
2023/03/06 12:17:17;;;;;;;30.08;22.40;;;12.10;99.90;;;;;;5112414;27;20216;-72
2023/03/06 12:19:59;;;;;;;30.55;23.55;;;12.40;99.90;;;;;;5112364;27;20311;-71
2023/03/06 12:22:39;;;;;;;32.88;23.75;;;12.70;99.90;;;;;;5114244;27;20769;-73
2023/03/06 12:25:24;;;;;;;28.33;23.58;;;12.80;99.90;;;;;;5111991;27;20204;-73
2023/03/06 12:28:04;;;;;;;31.63;21.98;;;13.20;99.90;;;;;;5106409;27;20211;-73
2023/03/06 12:30:54;;;;;;;29.15;23.48;;;13.40;99.90;;;;;;5113606;27;20390;-73
2023/03/06 12:33:32;;;;;;;28.45;22.60;;;13.70;99.90;;;;;;5110563;27;20658;-72
2023/03/06 12:36:13;;;;;;;30.38;21.90;;;13.90;99.90;;;;;;5114105;27;20273;-73
2023/03/06 12:39:00;;;;;;;24.73;19.23;;;14.00;99.90;;;;;;5110853;27;20454;-73
2023/03/06 12:41:46;;;;;;;21.70;18.52;;;14.10;99.90;;;;;;5113972;27;20228;-73
2023/03/06 12:44:49;;;;;;;24.00;17.83;;;14.00;99.90;;;;;;5112634;27;20763;-73
2023/03/06 12:47:19;;;;;;;28.13;20.63;;;14.20;99.90;;;;;;5105874;27;20559;-73
2023/03/06 12:49:54;;;;;;;25.02;18.67;;;14.10;99.90;;;;;;5111609;27;20227;-73
2023/03/06 12:52:25;;;;;;;27.25;21.02;;;13.90;99.90;;;;;;5112930;27;20696;-71